Time;durP1;ratioP1;P1;durP2;ratioP2;P2;SDS_P1;SDS_P2;PMS_P1;PMS_P2;Temp;Humidity;BMP_temperature;BMP_pressure;BME280_temperature;BME280_humidity;BME280_pressure;Samples;Min_cycle;Max_cycle;Signal;HPM_P1;HPM_P2
2023/02/24 00:00:30;;;;;;;100.60;64.30;;;9.40;99.90;;;;;;5020841;28;20515;-42
2023/02/24 00:03:04;;;;;;;98.43;61.33;;;9.40;99.90;;;;;;5020845;28;20435;-43
2023/02/24 00:05:35;;;;;;;92.40;58.10;;;9.30;99.90;;;;;;5020180;28;20765;-43
2023/02/24 00:08:01;;;;;;;99.00;57.40;;;9.30;99.90;;;;;;5016659;28;20434;-43
2023/02/24 00:10:26;;;;;;;92.30;56.60;;;9.30;99.90;;;;;;5020240;28;20432;-41
2023/02/24 00:12:52;;;;;;;88.23;55.73;;;9.30;99.90;;;;;;5020301;28;20453;-43
2023/02/24 00:15:19;;;;;;;86.67;54.80;;;9.20;99.90;;;;;;5020160;28;20213;-41
2023/02/24 00:17:45;;;;;;;87.03;53.90;;;9.10;99.90;;;;;;5020533;28;20461;-41
2023/02/24 00:20:12;;;;;;;86.57;55.20;;;9.10;99.90;;;;;;5020441;28;20421;-44
2023/02/24 00:22:41;;;;;;;89.50;55.43;;;9.00;99.90;;;;;;5019977;28;20466;-39
2023/02/24 00:25:07;;;;;;;90.57;54.97;;;9.00;99.90;;;;;;5019961;28;20503;-43
2023/02/24 00:27:33;;;;;;;86.30;53.37;;;9.00;99.90;;;;;;5018701;28;20436;-41
2023/02/24 00:30:00;;;;;;;87.37;54.20;;;9.00;99.90;;;;;;5020336;28;20895;-42
2023/02/24 00:32:26;;;;;;;88.60;55.00;;;9.00;99.90;;;;;;5020238;28;20420;-42
2023/02/24 00:34:52;;;;;;;88.87;54.07;;;9.00;99.90;;;;;;5020567;28;20902;-42
2023/02/24 00:37:22;;;;;;;86.90;54.40;;;9.00;99.90;;;;;;5020751;28;20661;-42
2023/02/24 00:39:56;;;;;;;89.87;55.27;;;9.00;99.90;;;;;;5019558;28;20211;-40
2023/02/24 00:42:22;;;;;;;86.30;52.00;;;9.10;99.90;;;;;;5020053;28;20436;-42
2023/02/24 00:44:48;;;;;;;86.23;53.73;;;9.10;99.90;;;;;;5019287;28;20973;-42
2023/02/24 00:47:17;;;;;;;84.90;54.10;;;9.10;99.90;;;;;;5019200;28;20403;-40
2023/02/24 00:49:44;;;;;;;88.67;54.97;;;9.10;99.90;;;;;;5019309;28;20446;-41
2023/02/24 00:52:16;;;;;;;90.47;54.77;;;9.10;99.90;;;;;;5020001;28;20752;-40
2023/02/24 00:54:42;;;;;;;95.23;57.30;;;9.10;99.90;;;;;;5018610;28;20431;-40
2023/02/24 00:57:08;;;;;;;99.10;57.93;;;9.10;99.90;;;;;;5019109;28;20453;-41
2023/02/24 00:59:35;;;;;;;96.43;58.67;;;9.20;99.90;;;;;;5019423;28;20421;-43
2023/02/24 01:02:02;;;;;;;93.80;58.20;;;9.20;99.90;;;;;;5019680;28;21063;-46
2023/02/24 01:04:28;;;;;;;92.10;57.70;;;9.20;99.90;;;;;;5019410;28;20475;-46
2023/02/24 01:06:58;;;;;;;99.20;60.83;;;9.20;99.90;;;;;;5015984;28;20706;-44
2023/02/24 01:09:26;;;;;;;98.40;59.00;;;9.20;99.90;;;;;;5019705;28;20418;-42
2023/02/24 01:14:38;;;;;;;90.03;57.03;;;9.10;99.90;;;;;;5015866;28;20527;-41
2023/02/24 01:17:06;;;;;;;88.83;57.47;;;9.00;99.90;;;;;;5018997;28;20432;-42
2023/02/24 01:19:33;;;;;;;89.33;56.27;;;9.00;99.90;;;;;;5018466;28;20595;-42
2023/02/24 01:22:00;;;;;;;76.77;52.20;;;9.00;99.90;;;;;;5018992;28;20427;-43
2023/02/24 01:24:28;;;;;;;89.30;55.80;;;9.10;99.90;;;;;;5019276;28;20577;-44
2023/02/24 01:26:54;;;;;;;85.73;54.60;;;9.00;99.90;;;;;;5018116;28;20457;-42
2023/02/24 01:29:21;;;;;;;85.20;54.23;;;8.90;99.90;;;;;;5019313;28;20478;-42
2023/02/24 01:31:49;;;;;;;78.50;54.10;;;8.90;99.90;;;;;;5019199;28;20491;-43
2023/02/24 01:34:15;;;;;;;81.43;52.83;;;8.90;99.90;;;;;;5017071;28;21007;-41
2023/02/24 01:36:42;;;;;;;74.50;49.90;;;8.90;99.90;;;;;;5019152;28;20708;-43
2023/02/24 01:39:09;;;;;;;77.07;50.10;;;8.90;99.90;;;;;;5019072;28;20432;-43
2023/02/24 01:41:40;;;;;;;72.83;48.87;;;9.00;99.90;;;;;;5019300;28;20454;-43
2023/02/24 01:44:16;;;;;;;67.63;48.83;;;8.90;99.90;;;;;;5018026;28;20478;-41
2023/02/24 01:46:48;;;;;;;67.37;48.37;;;8.90;99.90;;;;;;5018931;28;20476;-42
2023/02/24 01:49:33;;;;;;;66.20;47.00;;;8.90;99.90;;;;;;5018802;28;20435;-43
2023/02/24 01:52:24;;;;;;;65.00;45.87;;;8.80;99.90;;;;;;5019340;28;20432;-41
2023/02/24 01:54:58;;;;;;;64.90;43.90;;;8.80;99.90;;;;;;5017716;28;20436;-42
2023/02/24 01:57:30;;;;;;;65.57;45.40;;;8.70;99.90;;;;;;5019096;28;20416;-43
2023/02/24 02:00:08;;;;;;;62.70;44.83;;;8.70;99.90;;;;;;5018073;28;20874;-42
2023/02/24 02:02:34;;;;;;;56.60;43.30;;;8.60;99.90;;;;;;5018248;28;20446;-45
2023/02/24 02:05:04;;;;;;;58.20;43.40;;;8.60;99.90;;;;;;5018953;28;20478;-41
2023/02/24 02:07:30;;;;;;;57.40;42.17;;;8.60;99.90;;;;;;5018361;28;20784;-42
2023/02/24 02:10:02;;;;;;;49.30;40.70;;;8.60;99.90;;;;;;5019594;28;20513;-43
2023/02/24 02:12:31;;;;;;;48.13;40.50;;;8.50;99.90;;;;;;5018884;28;20952;-46
2023/02/24 02:14:58;;;;;;;48.50;40.07;;;8.50;99.90;;;;;;5017910;28;21051;-44
2023/02/24 02:17:23;;;;;;;48.50;38.53;;;8.40;99.90;;;;;;5017323;28;20884;-43
2023/02/24 02:20:15;;;;;;;45.33;38.87;;;8.40;99.90;;;;;;5018666;28;20457;-47
2023/02/24 02:22:59;;;;;;;48.37;39.57;;;8.40;99.90;;;;;;5017264;28;20696;-46
2023/02/24 02:25:55;;;;;;;43.03;36.80;;;8.40;99.90;;;;;;5019014;28;20989;-46
2023/02/24 02:28:30;;;;;;;45.80;37.27;;;8.30;99.90;;;;;;5016955;28;20437;-44
2023/02/24 02:31:05;;;;;;;41.77;35.60;;;8.40;99.90;;;;;;5022659;28;20899;-43
2023/02/24 02:33:53;;;;;;;41.30;34.83;;;8.40;99.90;;;;;;5022840;28;20828;-42
2023/02/24 02:36:46;;;;;;;46.27;36.90;;;8.40;99.90;;;;;;5021012;28;20460;-43
2023/02/24 02:39:19;;;;;;;40.77;34.83;;;8.40;99.90;;;;;;5021975;28;20434;-42
2023/02/24 02:42:00;;;;;;;42.23;34.17;;;8.30;99.90;;;;;;5022414;28;20419;-41
2023/02/24 02:44:46;;;;;;;39.43;32.50;;;8.30;99.90;;;;;;5022367;28;20468;-45
2023/02/24 02:47:33;;;;;;;38.70;33.00;;;8.20;99.90;;;;;;5022550;28;20414;-41
2023/02/24 02:50:26;;;;;;;38.00;32.50;;;8.20;99.90;;;;;;5022774;28;20405;-40
2023/02/24 02:53:01;;;;;;;36.77;32.87;;;8.20;99.90;;;;;;5022256;28;20507;-42
2023/02/24 02:56:05;;;;;;;35.73;31.90;;;8.10;99.90;;;;;;5021822;28;20521;-46
2023/02/24 02:58:37;;;;;;;36.23;31.60;;;8.10;99.90;;;;;;5020680;28;20516;-46
2023/02/24 03:01:06;;;;;;;35.57;30.80;;;8.20;99.90;;;;;;5021631;28;20526;-45
2023/02/24 03:03:45;;;;;;;35.20;30.87;;;8.20;99.90;;;;;;5021186;28;20433;-43
2023/02/24 03:06:22;;;;;;;34.70;31.07;;;8.20;99.90;;;;;;5019864;28;20966;-44
2023/02/24 03:09:14;;;;;;;37.80;31.77;;;8.20;99.90;;;;;;5019956;28;20437;-44
2023/02/24 03:11:54;;;;;;;34.63;30.83;;;8.20;99.90;;;;;;5021954;28;20441;-42
2023/02/24 03:14:32;;;;;;;38.03;32.43;;;8.10;99.90;;;;;;5021560;28;20504;-42
2023/02/24 03:16:58;;;;;;;37.10;30.53;;;8.10;99.90;;;;;;5021780;28;20455;-44
2023/02/24 03:19:36;;;;;;;35.37;31.40;;;8.10;99.90;;;;;;5019514;28;20437;-44
2023/02/24 03:22:16;;;;;;;38.63;31.50;;;8.10;99.90;;;;;;5021476;28;20738;-41
2023/02/24 03:24:43;;;;;;;38.17;32.23;;;8.10;99.90;;;;;;5021622;28;21072;-46
2023/02/24 03:27:23;;;;;;;34.50;30.63;;;8.10;99.90;;;;;;5020658;28;20774;-42
2023/02/24 03:30:25;;;;;;;36.63;32.73;;;8.10;99.90;;;;;;5021084;28;20932;-42
2023/02/24 03:33:04;;;;;;;34.90;31.20;;;8.10;99.90;;;;;;5021511;28;20477;-43
2023/02/24 03:35:33;;;;;;;32.40;29.17;;;8.10;99.90;;;;;;5021119;28;21267;-41
2023/02/24 03:37:59;;;;;;;30.17;27.07;;;8.10;99.90;;;;;;5021149;28;20468;-44
2023/02/24 03:40:33;;;;;;;29.90;26.90;;;8.10;99.90;;;;;;5020469;28;20433;-42
2023/02/24 03:43:08;;;;;;;30.93;27.83;;;8.00;99.90;;;;;;5021424;28;20778;-43
2023/02/24 03:45:36;;;;;;;28.47;25.80;;;8.00;99.90;;;;;;5020886;28;20471;-41
2023/02/24 03:48:07;;;;;;;29.80;26.80;;;7.90;99.90;;;;;;5020771;28;20437;-41
2023/02/24 03:50:34;;;;;;;29.57;26.47;;;7.90;99.90;;;;;;5021096;28;20431;-42
2023/02/24 03:53:46;;;;;;;29.37;26.37;;;7.90;99.90;;;;;;5021711;28;21257;-41
2023/02/24 03:56:31;;;;;;;29.33;26.13;;;7.80;99.90;;;;;;5019891;28;20920;-43
2023/02/24 03:59:15;;;;;;;29.93;26.77;;;7.70;99.90;;;;;;5020644;28;20440;-42
2023/02/24 04:02:01;;;;;;;28.10;25.30;;;7.70;99.90;;;;;;5020411;28;20939;-44
2023/02/24 04:04:57;;;;;;;30.13;26.30;;;7.70;99.90;;;;;;5020400;28;20559;-42
2023/02/24 04:07:38;;;;;;;28.13;25.13;;;7.60;99.90;;;;;;5020724;28;20457;-47
2023/02/24 04:10:36;;;;;;;33.80;27.13;;;7.50;99.90;;;;;;5020821;28;20425;-45
2023/02/24 04:13:18;;;;;;;29.90;26.60;;;7.40;99.90;;;;;;5011863;28;21061;-44
2023/02/24 04:15:51;;;;;;;29.67;26.03;;;7.40;99.90;;;;;;5017217;28;20520;-49
2023/02/24 04:18:24;;;;;;;32.10;25.53;;;7.30;99.90;;;;;;5020743;28;20463;-42
2023/02/24 04:20:51;;;;;;;30.90;25.63;;;7.20;99.90;;;;;;5019231;28;20436;-45
2023/02/24 04:23:21;;;;;;;30.53;24.63;;;7.20;99.90;;;;;;5018642;28;20425;-42
2023/02/24 04:25:51;;;;;;;26.50;22.07;;;7.10;99.90;;;;;;5019583;28;20464;-41
2023/02/24 04:28:23;;;;;;;25.30;22.57;;;7.10;99.90;;;;;;5034395;28;20981;-45
2023/02/24 04:30:54;;;;;;;28.27;22.93;;;7.00;99.90;;;;;;5020252;28;20417;-45
2023/02/24 04:33:20;;;;;;;25.83;23.03;;;7.00;99.90;;;;;;5020263;28;20448;-43
2023/02/24 04:35:49;;;;;;;25.53;22.83;;;7.00;99.90;;;;;;5018752;28;20861;-42
2023/02/24 04:38:15;;;;;;;29.73;23.23;;;7.00;99.90;;;;;;5018489;28;20841;-43
2023/02/24 04:40:41;;;;;;;26.37;23.67;;;7.00;99.90;;;;;;5018774;28;20600;-44
2023/02/24 04:43:07;;;;;;;24.50;21.90;;;7.00;99.90;;;;;;5018695;28;20429;-41
2023/02/24 04:45:33;;;;;;;25.70;22.30;;;7.00;99.90;;;;;;5019497;28;20542;-42
2023/02/24 04:48:01;;;;;;;24.57;21.70;;;7.00;99.90;;;;;;5019387;28;20468;-44
2023/02/24 04:50:32;;;;;;;27.33;22.57;;;7.00;99.90;;;;;;5020043;28;20422;-42
2023/02/24 04:53:08;;;;;;;25.30;22.13;;;7.00;99.90;;;;;;5019194;28;20527;-41
2023/02/24 04:55:38;;;;;;;27.43;24.37;;;7.00;99.90;;;;;;5018718;28;20908;-41
2023/02/24 04:58:04;;;;;;;26.23;22.90;;;7.00;99.90;;;;;;5018983;28;20464;-44
2023/02/24 05:00:34;;;;;;;29.80;24.67;;;7.00;99.90;;;;;;5019547;28;20430;-42
2023/02/24 05:03:04;;;;;;;28.03;24.60;;;7.00;99.90;;;;;;5019345;28;20449;-46
2023/02/24 05:05:32;;;;;;;31.97;25.90;;;7.00;99.90;;;;;;5019176;28;20911;-42
2023/02/24 05:08:09;;;;;;;31.00;26.40;;;7.00;99.90;;;;;;5017044;28;20476;-42
2023/02/24 05:10:45;;;;;;;33.27;26.97;;;7.10;99.90;;;;;;5017768;28;20959;-44
2023/02/24 05:13:20;;;;;;;35.03;26.33;;;7.00;99.90;;;;;;5018645;28;20456;-42
2023/02/24 05:15:47;;;;;;;32.23;25.80;;;7.00;99.90;;;;;;5018555;28;20916;-44
2023/02/24 05:18:15;;;;;;;34.40;26.13;;;7.00;99.90;;;;;;5019095;28;20420;-44
2023/02/24 05:23:39;;;;;;;29.77;25.60;;;7.10;99.90;;;;;;5019423;28;20921;-42
2023/02/24 05:26:07;;;;;;;32.03;25.83;;;7.00;99.90;;;;;;5018829;28;20898;-43
2023/02/24 05:28:39;;;;;;;29.27;25.10;;;7.10;99.90;;;;;;5017960;28;20436;-43
2023/02/24 05:31:13;;;;;;;33.23;25.80;;;7.00;99.90;;;;;;5019210;28;20433;-42
2023/02/24 05:33:41;;;;;;;30.13;26.60;;;7.00;99.90;;;;;;5019297;28;20412;-42
2023/02/24 05:36:16;;;;;;;31.30;25.15;;;7.00;99.90;;;;;;5018924;28;20430;-43
2023/02/24 05:38:46;;;;;;;30.57;24.50;;;7.00;99.90;;;;;;5019549;28;20251;-44
2023/02/24 05:41:16;;;;;;;29.63;24.27;;;7.00;99.90;;;;;;5019590;28;20437;-44
2023/02/24 05:43:47;;;;;;;31.03;25.20;;;7.00;99.90;;;;;;5019882;28;20807;-44
2023/02/24 05:46:14;;;;;;;33.33;26.77;;;7.00;99.90;;;;;;5019838;28;20472;-41
2023/02/24 05:48:41;;;;;;;34.63;28.20;;;7.00;99.90;;;;;;5019919;28;20417;-44
2023/02/24 05:51:10;;;;;;;27.73;24.20;;;7.00;99.90;;;;;;5019473;28;20436;-42
2023/02/24 05:53:40;;;;;;;41.13;35.40;;;7.00;99.90;;;;;;5019538;28;20819;-42
2023/02/24 05:56:09;;;;;;;30.53;25.70;;;6.90;99.90;;;;;;5018502;28;20514;-42
2023/02/24 05:58:38;;;;;;;27.40;24.53;;;6.80;99.90;;;;;;5016032;28;20536;-44
2023/02/24 06:01:14;;;;;;;25.13;22.27;;;6.70;99.90;;;;;;5018137;28;20786;-45
2023/02/24 06:03:47;;;;;;;23.48;21.10;;;6.70;99.90;;;;;;5018656;28;20441;-42
2023/02/24 06:06:14;;;;;;;22.77;20.48;;;6.70;99.90;;;;;;5023020;28;20225;-41
2023/02/24 06:08:49;;;;;;;23.27;20.23;;;6.60;99.90;;;;;;5023001;28;20189;-45
2023/02/24 06:11:17;;;;;;;23.50;21.10;;;6.60;99.90;;;;;;5023143;28;20742;-42
2023/02/24 06:13:46;;;;;;;24.40;21.93;;;6.50;99.90;;;;;;5023033;28;20469;-41
2023/02/24 06:16:14;;;;;;;20.70;18.70;;;6.40;99.90;;;;;;5023132;28;20793;-42
2023/02/24 06:18:46;;;;;;;21.73;19.83;;;6.40;99.90;;;;;;5022868;28;20512;-41
2023/02/24 06:21:12;;;;;;;19.70;17.70;;;6.40;99.90;;;;;;5023002;28;20552;-42
2023/02/24 06:23:39;;;;;;;21.37;19.47;;;6.40;99.90;;;;;;5022318;28;20428;-44
2023/02/24 06:26:11;;;;;;;21.30;19.30;;;6.30;99.90;;;;;;5021374;28;20280;-43
2023/02/24 06:28:38;;;;;;;20.63;18.83;;;6.30;99.90;;;;;;5022653;28;20653;-43
2023/02/24 06:31:05;;;;;;;21.85;19.85;;;6.20;99.90;;;;;;5022486;28;20186;-42
2023/02/24 06:33:32;;;;;;;22.15;20.30;;;6.20;99.90;;;;;;5022954;28;20664;-46
2023/02/24 06:36:03;;;;;;;21.40;19.60;;;6.00;99.90;;;;;;5022387;28;20187;-43
2023/02/24 06:38:33;;;;;;;19.35;17.75;;;5.80;99.90;;;;;;5022512;28;20731;-41
2023/02/24 06:41:01;;;;;;;25.83;23.50;;;5.70;99.90;;;;;;5022851;28;20213;-44
2023/02/24 06:43:27;;;;;;;22.55;20.75;;;5.60;99.90;;;;;;5023012;28;20178;-43
2023/02/24 06:45:53;;;;;;;26.00;23.60;;;5.60;99.90;;;;;;5022307;28;20378;-42
2023/02/24 06:48:21;;;;;;;22.17;19.88;;;5.50;99.90;;;;;;5022649;28;20170;-42
2023/02/24 06:50:48;;;;;;;23.25;21.17;;;5.50;99.90;;;;;;5022234;28;20193;-42
2023/02/24 06:53:15;;;;;;;20.65;19.00;;;5.40;99.90;;;;;;5020285;28;20274;-41
2023/02/24 06:55:45;;;;;;;57.40;47.80;;;5.40;99.90;;;;;;5019926;28;20910;-43
2023/02/24 06:58:18;;;;;;;65.07;53.03;;;5.40;99.90;;;;;;5021265;28;20202;-46
2023/02/24 07:00:55;;;;;;;31.20;28.05;;;5.40;99.90;;;;;;5021859;28;20222;-41
2023/02/24 07:03:38;;;;;;;29.50;26.65;;;5.40;99.90;;;;;;5021962;28;20595;-43
2023/02/24 07:06:19;;;;;;;29.15;26.00;;;5.30;99.90;;;;;;5022201;28;20953;-43
2023/02/24 07:08:45;;;;;;;30.40;26.45;;;5.30;99.90;;;;;;5021095;28;20212;-45
2023/02/24 07:11:12;;;;;;;39.88;34.58;;;5.30;99.90;;;;;;5022038;28;20323;-43
2023/02/24 07:13:39;;;;;;;44.65;38.55;;;5.20;99.90;;;;;;5021811;28;20676;-41
2023/02/24 07:16:06;;;;;;;50.83;41.67;;;5.10;99.90;;;;;;5020980;28;20668;-42
2023/02/24 07:18:39;;;;;;;28.83;26.00;;;5.10;99.90;;;;;;5022523;28;20218;-45
2023/02/24 07:21:10;;;;;;;22.77;20.40;;;5.00;99.90;;;;;;5022130;28;20356;-43
2023/02/24 07:23:37;;;;;;;20.70;18.73;;;5.00;99.90;;;;;;5021529;28;20179;-42
2023/02/24 07:26:13;;;;;;;30.45;27.35;;;4.90;99.90;;;;;;5021610;28;20293;-44
2023/02/24 07:28:41;;;;;;;27.65;25.05;;;4.90;99.90;;;;;;5020237;28;20533;-41
2023/02/24 07:31:10;;;;;;;24.98;22.67;;;5.00;99.90;;;;;;5021935;28;20183;-43
2023/02/24 07:33:37;;;;;;;21.17;19.38;;;4.90;99.90;;;;;;5021809;28;20266;-43
2023/02/24 07:36:13;;;;;;;25.08;22.85;;;4.90;99.90;;;;;;5021341;28;20260;-41
2023/02/24 07:38:40;;;;;;;18.65;16.92;;;4.90;99.90;;;;;;5020558;28;20174;-41
2023/02/24 07:41:09;;;;;;;23.88;21.63;;;4.80;99.90;;;;;;5020470;28;20223;-41
2023/02/24 07:43:39;;;;;;;19.58;16.42;;;4.80;99.90;;;;;;5021534;28;20189;-43
2023/02/24 07:46:18;;;;;;;18.23;16.70;;;4.70;99.90;;;;;;5021361;28;20657;-42
2023/02/24 07:48:45;;;;;;;17.13;15.65;;;4.60;99.90;;;;;;5020758;28;20221;-44
2023/02/24 07:51:14;;;;;;;17.90;15.82;;;4.60;99.90;;;;;;5020866;28;20232;-44
2023/02/24 07:53:40;;;;;;;16.40;14.85;;;4.50;99.90;;;;;;5021109;28;20317;-41
2023/02/24 07:56:12;;;;;;;17.55;15.85;;;4.50;99.90;;;;;;5021809;28;20206;-46
2023/02/24 07:58:57;;;;;;;18.98;16.65;;;4.50;99.90;;;;;;5020790;28;20182;-42
2023/02/24 08:01:28;;;;;;;18.90;17.00;;;4.40;99.90;;;;;;5020779;28;20198;-43
2023/02/24 08:04:02;;;;;;;16.60;15.15;;;4.50;99.90;;;;;;5021185;28;20712;-41
2023/02/24 08:06:38;;;;;;;17.52;15.82;;;4.50;99.90;;;;;;5020959;28;20175;-44
2023/02/24 08:09:19;;;;;;;16.48;15.20;;;4.50;99.90;;;;;;5018930;28;20191;-44
2023/02/24 08:11:52;;;;;;;17.77;16.08;;;4.50;99.90;;;;;;5020418;28;20265;-43
2023/02/24 08:14:22;;;;;;;17.88;16.35;;;4.50;99.90;;;;;;5020710;28;20198;-42
2023/02/24 08:16:50;;;;;;;17.50;15.80;;;4.50;99.90;;;;;;5020840;28;20181;-46
2023/02/24 08:19:19;;;;;;;17.98;16.27;;;4.60;99.90;;;;;;5020781;28;20197;-41
2023/02/24 08:21:51;;;;;;;17.60;16.17;;;4.50;99.90;;;;;;5020585;28;20195;-43
2023/02/24 08:24:22;;;;;;;19.20;16.63;;;4.50;99.90;;;;;;5020721;28;20217;-41
2023/02/24 08:27:03;;;;;;;18.33;16.73;;;4.60;99.90;;;;;;5020667;28;20629;-42
2023/02/24 08:29:39;;;;;;;17.85;16.52;;;4.60;99.90;;;;;;5020251;28;20178;-46
2023/02/24 08:32:08;;;;;;;17.60;16.20;;;4.70;99.90;;;;;;5020684;28;20209;-40
2023/02/24 08:34:36;;;;;;;18.45;16.60;;;4.70;99.90;;;;;;5020566;28;20191;-45
2023/02/24 08:37:02;;;;;;;18.23;16.75;;;4.70;99.90;;;;;;5019456;28;20293;-42
2023/02/24 08:39:29;;;;;;;16.90;15.60;;;4.70;99.90;;;;;;5020440;28;20283;-42
2023/02/24 08:41:56;;;;;;;18.60;16.77;;;4.70;99.90;;;;;;5020416;28;20440;-43
2023/02/24 08:44:25;;;;;;;16.63;15.23;;;4.70;99.90;;;;;;5020336;28;20182;-44
2023/02/24 08:46:52;;;;;;;17.67;16.25;;;4.80;99.90;;;;;;5020317;28;20209;-43
2023/02/24 08:49:18;;;;;;;20.05;16.00;;;4.80;99.90;;;;;;5019995;28;20644;-43
2023/02/24 08:51:46;;;;;;;17.48;16.02;;;4.80;99.90;;;;;;5020529;28;20178;-42
2023/02/24 08:54:25;;;;;;;18.77;17.42;;;4.80;99.90;;;;;;5019906;28;20242;-42
2023/02/24 08:56:56;;;;;;;17.75;16.05;;;4.80;99.90;;;;;;5020217;28;20175;-41
2023/02/24 08:59:28;;;;;;;16.75;15.30;;;4.80;99.90;;;;;;5020162;28;20177;-42
2023/02/24 09:04:47;;;;;;;17.13;15.57;;;4.80;99.90;;;;;;5020253;28;20189;-43
2023/02/24 09:07:15;;;;;;;15.98;14.55;;;4.80;99.90;;;;;;5018233;28;20400;-43
2023/02/24 09:09:42;;;;;;;21.20;15.65;;;4.80;99.90;;;;;;5019439;28;20229;-44
2023/02/24 09:12:20;;;;;;;17.67;16.27;;;4.80;99.90;;;;;;5019961;28;20313;-42
2023/02/24 09:14:48;;;;;;;17.52;15.85;;;4.80;99.90;;;;;;5019903;28;20235;-43
2023/02/24 09:17:19;;;;;;;17.08;15.70;;;4.90;99.90;;;;;;5020198;28;20182;-45
2023/02/24 09:22:31;;;;;;;18.75;17.05;;;5.00;99.90;;;;;;5020123;28;20552;-42
2023/02/24 09:25:39;;;;;;;18.67;17.02;;;5.00;99.90;;;;;;5019946;28;20272;-42
2023/02/24 09:28:16;;;;;;;18.52;16.75;;;5.00;99.90;;;;;;5019702;28;20183;-43
2023/02/24 09:30:49;;;;;;;16.98;15.55;;;5.00;99.90;;;;;;5019932;28;20193;-42
2023/02/24 09:33:40;;;;;;;17.90;16.60;;;4.80;99.90;;;;;;5019621;28;20562;-43
2023/02/24 09:36:18;;;;;;;17.00;15.70;;;4.80;99.90;;;;;;5018836;28;20206;-41
2023/02/24 09:41:31;;;;;;;16.63;15.45;;;4.70;99.90;;;;;;5019708;28;20209;-43
2023/02/24 09:44:06;;;;;;;18.25;16.50;;;4.70;99.90;;;;;;5018066;28;20186;-42
2023/02/24 09:46:38;;;;;;;18.48;17.02;;;4.80;99.90;;;;;;5019403;28;20209;-44
2023/02/24 09:49:17;;;;;;;17.80;15.95;;;4.80;99.90;;;;;;5019247;28;20265;-42
2023/02/24 09:51:43;;;;;;;16.83;15.38;;;4.80;99.90;;;;;;5019632;28;20217;-42
2023/02/24 09:54:17;;;;;;;17.73;16.33;;;4.90;99.90;;;;;;5019357;28;20194;-45
2023/02/24 09:57:15;;;;;;;18.58;16.98;;;5.10;99.90;;;;;;5019639;28;20175;-42
2023/02/24 10:00:23;;;;;;;19.25;17.52;;;5.40;99.90;;;;;;5019571;28;20182;-43
2023/02/24 10:03:40;;;;;;;18.48;16.58;;;5.80;99.90;;;;;;5019670;28;20676;-42
2023/02/24 10:06:21;;;;;;;18.92;17.45;;;6.10;99.90;;;;;;5014602;28;20737;-46
2023/02/24 10:09:14;;;;;;;17.52;16.00;;;6.10;99.90;;;;;;5018920;28;20228;-45
2023/02/24 10:12:02;;;;;;;17.10;15.80;;;6.20;99.90;;;;;;5018670;28;20249;-43
2023/02/24 10:14:46;;;;;;;17.70;16.30;;;6.40;99.90;;;;;;5019209;28;20238;-46
2023/02/24 10:17:22;;;;;;;17.63;16.03;;;6.50;99.90;;;;;;5018998;28;20189;-44
2023/02/24 10:19:59;;;;;;;18.73;17.20;;;6.70;99.90;;;;;;5019127;28;20408;-41
2023/02/24 10:22:49;;;;;;;17.30;15.90;;;6.90;99.90;;;;;;5019106;28;20413;-43
2023/02/24 10:25:52;;;;;;;17.30;15.60;;;7.00;99.90;;;;;;5019333;28;20428;-42
2023/02/24 10:28:38;;;;;;;18.30;16.00;;;7.00;99.90;;;;;;5018954;28;20420;-43
2023/02/24 10:31:23;;;;;;;15.87;14.57;;;6.90;99.90;;;;;;5019223;28;20425;-45
2023/02/24 10:34:00;;;;;;;16.47;14.97;;;7.10;99.90;;;;;;5019221;28;21010;-42
2023/02/24 10:36:35;;;;;;;16.37;15.10;;;7.00;99.90;;;;;;5018642;28;21037;-42
2023/02/24 10:39:15;;;;;;;14.93;13.73;;;7.30;99.90;;;;;;5019054;28;20417;-42
2023/02/24 10:41:46;;;;;;;13.93;12.80;;;7.20;99.90;;;;;;5018048;28;20436;-42
2023/02/24 10:44:22;;;;;;;15.47;14.13;;;7.00;99.90;;;;;;5018327;28;20409;-41
2023/02/24 10:47:10;;;;;;;14.80;13.47;;;6.90;99.90;;;;;;5018480;28;20417;-47
2023/02/24 10:49:41;;;;;;;15.90;14.37;;;7.40;99.90;;;;;;5018547;28;21227;-47
2023/02/24 10:52:28;;;;;;;16.10;14.77;;;7.40;99.90;;;;;;5021084;28;20425;-45
2023/02/24 10:55:07;;;;;;;16.27;14.77;;;7.60;99.90;;;;;;5022348;28;20465;-46
2023/02/24 10:57:45;;;;;;;16.57;14.90;;;7.60;99.90;;;;;;5022812;28;20409;-42
2023/02/24 11:00:50;;;;;;;15.43;13.90;;;7.50;99.90;;;;;;5021930;28;21129;-43
2023/02/24 11:03:24;;;;;;;15.20;13.80;;;7.50;99.90;;;;;;5022203;28;20429;-42
2023/02/24 11:08:53;;;;;;;15.00;13.90;;;7.60;99.90;;;;;;5021318;28;21002;-43
2023/02/24 11:11:28;;;;;;;15.50;13.93;;;7.50;99.90;;;;;;5021512;28;21073;-44
2023/02/24 11:19:54;;;;;;;14.90;13.70;;;7.40;99.90;;;;;;5021515;28;20444;-44
2023/02/24 11:22:24;;;;;;;15.40;14.10;;;7.30;99.90;;;;;;5021834;28;20427;-44
2023/02/24 11:24:51;;;;;;;15.70;14.60;;;7.30;99.90;;;;;;5021691;28;20417;-42
2023/02/24 11:27:20;;;;;;;15.37;14.20;;;7.20;99.90;;;;;;5021865;28;20426;-45
2023/02/24 11:30:08;;;;;;;16.60;15.13;;;7.20;99.90;;;;;;5021751;28;20457;-45
2023/02/24 11:32:50;;;;;;;16.53;15.23;;;7.20;99.90;;;;;;5021855;28;20842;-40
2023/02/24 11:35:19;;;;;;;15.20;13.93;;;7.20;99.90;;;;;;5021315;28;20473;-42
2023/02/24 11:37:58;;;;;;;17.20;15.37;;;7.30;99.90;;;;;;5021803;28;20519;-45
2023/02/24 11:40:28;;;;;;;16.40;15.20;;;7.50;99.90;;;;;;5020540;28;20471;-46
2023/02/24 11:42:56;;;;;;;17.20;15.73;;;7.60;99.90;;;;;;5021256;28;20448;-43
2023/02/24 11:45:45;;;;;;;18.53;17.07;;;7.80;99.90;;;;;;5021773;28;20418;-48
2023/02/24 11:48:32;;;;;;;16.87;15.77;;;8.00;99.90;;;;;;5021330;28;20799;-42
2023/02/24 11:51:12;;;;;;;24.27;21.90;;;8.40;99.90;;;;;;5021346;28;20472;-45
2023/02/24 11:53:53;;;;;;;17.37;15.97;;;8.60;99.90;;;;;;5021707;28;20418;-43
2023/02/24 11:56:59;;;;;;;19.13;17.57;;;8.80;99.90;;;;;;5021001;28;20465;-47
2023/02/24 11:59:50;;;;;;;17.53;16.10;;;8.90;99.90;;;;;;5021034;28;20697;-43
2023/02/24 12:02:40;;;;;;;16.40;15.20;;;8.80;99.90;;;;;;5020497;28;20514;-43
2023/02/24 12:05:17;;;;;;;15.53;14.40;;;8.70;99.90;;;;;;5021264;28;20434;-42
2023/02/24 12:07:49;;;;;;;18.30;16.50;;;8.60;99.90;;;;;;5019843;28;21089;-46
2023/02/24 12:10:21;;;;;;;16.30;15.10;;;8.60;99.90;;;;;;5020362;28;20425;-46
2023/02/24 12:13:14;;;;;;;16.90;15.57;;;8.40;99.90;;;;;;5019185;28;20492;-43
2023/02/24 12:16:06;;;;;;;16.43;15.20;;;8.40;99.90;;;;;;5020608;28;20463;-41
2023/02/24 12:18:33;;;;;;;17.00;15.90;;;8.10;99.90;;;;;;5019733;28;20443;-45
2023/02/24 12:21:19;;;;;;;15.77;14.67;;;8.10;99.90;;;;;;5020498;28;20480;-43
2023/02/24 12:23:47;;;;;;;15.97;14.67;;;8.10;99.90;;;;;;5020915;28;20433;-43
2023/02/24 12:26:15;;;;;;;16.50;15.10;;;8.10;99.90;;;;;;5020457;28;20421;-41
2023/02/24 12:28:51;;;;;;;16.20;15.00;;;8.00;99.90;;;;;;5020826;28;20936;-46
2023/02/24 12:31:37;;;;;;;17.20;15.90;;;8.00;99.90;;;;;;5020603;28;20425;-42
2023/02/24 12:34:17;;;;;;;16.43;15.33;;;7.90;99.90;;;;;;5020491;28;20426;-44
2023/02/24 12:37:16;;;;;;;17.27;15.90;;;7.90;99.90;;;;;;5020383;28;20882;-41
2023/02/24 12:39:57;;;;;;;17.00;15.80;;;8.10;99.90;;;;;;5008398;28;20880;-42
2023/02/24 12:42:33;;;;;;;16.27;14.87;;;8.30;99.90;;;;;;5019656;28;20449;-41
2023/02/24 12:45:18;;;;;;;16.33;15.13;;;8.40;99.90;;;;;;5020043;28;21205;-42
2023/02/24 12:47:56;;;;;;;15.60;14.30;;;8.50;99.90;;;;;;5020568;28;20426;-46
2023/02/24 12:50:51;;;;;;;17.30;16.00;;;8.50;99.90;;;;;;5018330;28;20578;-45
2023/02/24 12:53:41;;;;;;;15.80;14.70;;;8.40;99.90;;;;;;5013913;28;20446;-45
2023/02/24 12:56:23;;;;;;;17.50;16.27;;;8.30;99.90;;;;;;5019580;28;20955;-43
2023/02/24 12:58:51;;;;;;;16.20;14.90;;;8.20;99.90;;;;;;5019921;28;20438;-45
2023/02/24 13:01:52;;;;;;;17.10;15.90;;;8.10;99.90;;;;;;5019778;28;20428;-47
2023/02/24 13:04:38;;;;;;;15.77;14.33;;;8.10;99.90;;;;;;5020023;28;20508;-46
2023/02/24 13:07:22;;;;;;;14.17;13.17;;;8.10;99.90;;;;;;5019227;28;20731;-45
2023/02/24 13:10:28;;;;;;;15.13;14.03;;;8.20;99.90;;;;;;5019425;28;20450;-47
2023/02/24 13:13:05;;;;;;;15.40;14.20;;;8.30;99.90;;;;;;5018710;28;20486;-43
2023/02/24 13:15:31;;;;;;;16.57;15.37;;;8.20;99.90;;;;;;5018206;28;20461;-44
2023/02/24 13:17:57;;;;;;;15.97;14.87;;;8.20;99.90;;;;;;5019993;28;20709;-45
2023/02/24 13:20:35;;;;;;;16.43;15.23;;;8.10;99.90;;;;;;5017978;28;20468;-41
2023/02/24 13:23:03;;;;;;;16.53;15.23;;;7.90;99.90;;;;;;5019850;28;20539;-44
2023/02/24 13:25:36;;;;;;;15.97;14.67;;;7.90;99.90;;;;;;5019479;28;20433;-44
2023/02/24 13:28:04;;;;;;;16.60;15.30;;;7.90;99.90;;;;;;5019193;28;20446;-43
2023/02/24 13:30:33;;;;;;;17.63;16.27;;;7.90;99.90;;;;;;5019735;28;20778;-45
2023/02/24 13:33:23;;;;;;;17.50;16.20;;;8.00;99.90;;;;;;5019686;28;20512;-45
2023/02/24 13:35:52;;;;;;;17.50;16.20;;;7.90;99.90;;;;;;5019393;28;20461;-44